createdAt,value
2022-11-15T00:05:28.785Z,6.49
2022-11-15T00:11:00.398Z,6.55
2022-11-15T00:16:32.306Z,6.57
2022-11-15T00:22:03.936Z,6.59
2022-11-15T00:27:35.757Z,6.59
2022-11-15T00:33:07.463Z,6.56
2022-11-15T00:38:39.312Z,6.53
2022-11-15T00:44:10.975Z,6.48
2022-11-15T00:49:42.840Z,6.48
2022-11-15T00:55:14.596Z,6.50
2022-11-15T01:00:46.344Z,6.59
2022-11-15T01:06:18.172Z,6.63
2022-11-15T01:11:50.222Z,6.65
2022-11-15T01:17:21.667Z,6.61
2022-11-15T01:22:52.901Z,6.59
2022-11-15T01:28:24.346Z,6.56
2022-11-15T01:33:56.058Z,6.43
2022-11-15T01:39:27.773Z,6.35
2022-11-15T01:44:59.092Z,6.21
2022-11-15T01:52:43.025Z,6.03
2022-11-15T01:58:14.353Z,5.94
2022-11-15T02:03:46.092Z,5.77
2022-11-15T02:09:17.953Z,5.72
2022-11-15T02:14:49.926Z,5.58
2022-11-15T02:20:21.606Z,5.53
2022-11-15T02:25:53.426Z,5.42
2022-11-15T02:31:25.246Z,5.37
2022-11-15T02:36:56.948Z,5.25
2022-11-15T02:42:29.114Z,5.22
2022-11-15T02:48:00.964Z,5.17
2022-11-15T02:53:33.037Z,5.15
2022-11-15T02:59:04.335Z,5.17
2022-11-15T03:04:36.445Z,5.20
2022-11-15T03:10:08.544Z,5.21
2022-11-15T03:15:40.373Z,5.18
2022-11-15T03:21:12.118Z,5.18
2022-11-15T03:26:44.032Z,5.20
2022-11-15T03:32:15.983Z,5.22
2022-11-15T03:37:47.644Z,5.18
2022-11-15T03:43:19.531Z,5.18
2022-11-15T03:48:51.264Z,5.08
2022-11-15T03:54:22.991Z,5.06
2022-11-15T03:59:54.725Z,5.00
2022-11-15T04:05:26.466Z,4.97
2022-11-15T04:10:58.972Z,4.89
2022-11-15T04:16:30.585Z,4.87
2022-11-15T04:22:02.306Z,4.86
2022-11-15T04:27:34.219Z,4.86
2022-11-15T04:33:05.872Z,4.79
2022-11-15T04:38:37.786Z,4.76
2022-11-15T04:44:09.366Z,4.75
2022-11-15T04:49:41.111Z,4.73
2022-11-15T04:55:12.837Z,4.71
2022-11-15T04:57:37.008Z,0.00
2022-11-15T05:03:08.947Z,4.68
2022-11-15T05:08:41.010Z,4.61
2022-11-15T05:14:13.064Z,4.55
2022-11-15T05:19:44.862Z,4.54
2022-11-15T05:25:16.797Z,4.48
2022-11-15T05:30:48.765Z,4.45
2022-11-15T05:36:20.671Z,4.45
2022-11-15T05:41:52.505Z,4.45
2022-11-15T05:47:24.142Z,4.44
2022-11-15T05:52:59.666Z,4.42
2022-11-15T05:58:28.296Z,4.39
2022-11-15T06:04:00.125Z,4.38
2022-11-15T06:09:31.817Z,4.39
2022-11-15T06:15:03.603Z,4.47
2022-11-15T06:20:35.558Z,4.45
2022-11-15T06:26:07.349Z,4.51
2022-11-15T06:31:38.931Z,4.56
2022-11-15T06:37:10.446Z,4.72
2022-11-15T06:42:42.214Z,4.87
2022-11-15T06:48:13.872Z,5.50
2022-11-15T06:53:45.581Z,5.90
2022-11-15T06:59:17.420Z,6.83
2022-11-15T07:04:49.831Z,7.32
2022-11-15T07:10:21.932Z,8.24
2022-11-15T07:15:53.654Z,8.52
2022-11-15T07:21:27.729Z,8.60
2022-11-15T07:26:57.209Z,8.49
2022-11-15T07:32:29.568Z,8.19
2022-11-15T07:38:01.672Z,8.08
2022-11-15T07:45:30.648Z,0.00
2022-11-15T07:51:02.587Z,8.24
2022-11-15T07:56:34.313Z,8.24
2022-11-15T08:02:06.105Z,8.42
2022-11-15T08:13:07.575Z,9.23
2022-11-15T08:18:39.233Z,10.10
2022-11-15T08:24:11.229Z,10.53
2022-11-15T08:29:43.413Z,11.10
2022-11-15T08:35:15.368Z,11.33
2022-11-15T08:40:47.643Z,11.74
2022-11-15T08:46:19.818Z,11.95
2022-11-15T08:51:52.085Z,12.37
2022-11-15T08:57:24.480Z,12.56
2022-11-15T09:03:02.354Z,12.76
2022-11-15T09:08:47.357Z,12.89
2022-11-15T09:14:06.244Z,12.89
2022-11-15T09:19:38.378Z,12.75
2022-11-15T09:25:16.277Z,12.40
2022-11-15T09:30:48.626Z,12.29
2022-11-15T09:36:20.850Z,12.13
2022-11-15T09:41:59.064Z,12.06
2022-11-15T09:47:31.237Z,12.13
2022-11-15T09:53:08.961Z,12.08
2022-11-15T09:58:40.966Z,11.96
2022-11-15T10:04:19.187Z,11.99
2022-11-15T10:09:57.014Z,12.27
2022-11-15T10:15:29.298Z,12.41
2022-11-15T10:21:07.638Z,12.67
2022-11-15T10:26:45.711Z,12.88
2022-11-15T10:32:18.099Z,13.23
2022-11-15T10:37:56.301Z,13.33
2022-11-15T10:43:34.436Z,13.58
2022-11-15T10:49:06.746Z,13.65
2022-11-15T10:54:38.663Z,13.86
2022-11-15T11:00:16.824Z,13.93
2022-11-15T11:05:49.025Z,14.05
2022-11-15T11:11:20.884Z,14.12
2022-11-15T11:16:59.085Z,14.27
2022-11-15T11:22:37.291Z,14.37
2022-11-15T11:28:10.584Z,14.45
2022-11-15T11:33:48.920Z,14.47
2022-11-15T11:39:21.485Z,14.58
2022-11-15T11:44:53.382Z,14.61
2022-11-15T11:50:31.474Z,14.78
2022-11-15T11:56:03.350Z,14.85
2022-11-15T12:01:35.643Z,14.84
2022-11-15T12:07:07.943Z,14.95
2022-11-15T12:12:46.093Z,15.02
2022-11-15T12:18:18.251Z,15.10
2022-11-15T12:23:56.354Z,15.10
2022-11-15T12:29:34.509Z,15.12
2022-11-15T12:35:12.316Z,15.20
2022-11-15T12:40:44.649Z,15.23
2022-11-15T12:46:16.635Z,15.31
2022-11-15T12:51:48.952Z,15.41
2022-11-15T12:57:21.199Z,15.50
2022-11-15T13:02:59.545Z,15.60
2022-11-15T13:08:32.018Z,15.67
2022-11-15T13:14:04.064Z,15.72
2022-11-15T13:19:42.234Z,15.75
2022-11-15T13:25:19.995Z,15.74
2022-11-15T13:30:52.164Z,15.71
2022-11-15T13:42:10.204Z,15.72
2022-11-15T13:47:48.329Z,15.69
2022-11-15T13:53:20.265Z,15.71
2022-11-15T13:58:52.472Z,15.65
2022-11-15T14:04:24.849Z,15.60
2022-11-15T14:09:56.885Z,15.54
2022-11-15T14:15:28.758Z,15.47
2022-11-15T14:21:06.576Z,15.40
2022-11-15T14:26:44.225Z,15.27
2022-11-15T14:32:22.117Z,15.23
2022-11-15T14:43:38.275Z,15.10
2022-11-15T14:49:16.336Z,14.95
2022-11-15T14:54:48.589Z,14.82
2022-11-15T15:00:20.874Z,14.74
2022-11-15T15:05:53.210Z,14.60
2022-11-15T15:11:25.693Z,14.38
2022-11-15T15:16:57.804Z,14.24
2022-11-15T15:22:30.567Z,13.98
2022-11-15T15:28:02.464Z,13.86
2022-11-15T15:33:34.508Z,13.61
2022-11-15T15:39:06.678Z,13.44
2022-11-15T15:44:39.094Z,13.22
2022-11-15T15:50:11.489Z,13.09
2022-11-15T15:55:43.349Z,12.86
2022-11-15T16:01:15.300Z,12.74
2022-11-15T16:06:47.265Z,12.54
2022-11-15T16:12:19.211Z,12.44
2022-11-15T16:17:51.555Z,12.26
2022-11-15T16:23:23.620Z,12.18
2022-11-15T16:28:55.599Z,12.06
2022-11-15T16:34:31.169Z,12.05
2022-11-15T16:40:01.326Z,11.95
2022-11-15T16:45:32.288Z,11.92
2022-11-15T16:51:04.555Z,11.84
2022-11-15T16:56:36.605Z,11.81
2022-11-15T17:02:08.388Z,11.74
2022-11-15T17:07:40.032Z,11.71
2022-11-15T17:13:12.092Z,11.68
2022-11-15T17:18:44.388Z,11.67
2022-11-15T17:24:16.550Z,11.57
2022-11-15T17:29:48.723Z,11.51
2022-11-15T17:35:21.284Z,11.43
2022-11-15T17:40:53.155Z,11.37
2022-11-15T17:46:25.167Z,11.29
2022-11-15T17:51:57.723Z,11.25
2022-11-15T17:57:29.690Z,11.20
2022-11-15T18:03:01.764Z,11.15
2022-11-15T18:08:33.850Z,11.08
2022-11-15T18:14:05.764Z,11.05
2022-11-15T18:19:38.010Z,11.02
2022-11-15T18:25:10.246Z,10.98
2022-11-15T18:30:42.515Z,10.95
2022-11-15T18:36:14.774Z,10.88
2022-11-15T18:41:47.061Z,10.87
2022-11-15T18:47:19.375Z,10.85
2022-11-15T18:49:43.099Z,10.84
2022-11-15T18:55:15.197Z,10.90
2022-11-15T19:00:47.053Z,10.84
2022-11-15T19:06:18.857Z,10.85
2022-11-15T19:11:50.784Z,10.78
2022-11-15T19:17:22.231Z,10.77
2022-11-15T19:22:53.638Z,10.71
2022-11-15T19:28:25.642Z,10.67
2022-11-15T19:33:57.439Z,10.65
2022-11-15T19:39:29.141Z,10.57
2022-11-15T19:45:00.928Z,10.54
2022-11-15T19:50:32.669Z,10.48
2022-11-15T19:56:04.684Z,10.48
2022-11-15T20:01:36.702Z,10.51
2022-11-15T20:07:08.531Z,10.56
2022-11-15T20:12:45.767Z,10.59
2022-11-15T20:18:17.721Z,10.60
2022-11-15T20:23:49.429Z,10.64
2022-11-15T20:29:27.177Z,10.67
2022-11-15T20:34:59.088Z,10.74
2022-11-15T20:40:30.921Z,10.78
2022-11-15T20:46:02.584Z,10.84
2022-11-15T20:51:34.386Z,10.88
2022-11-15T20:57:06.345Z,10.90
2022-11-15T21:02:37.819Z,10.85
2022-11-15T21:08:09.449Z,10.81
2022-11-15T21:13:40.853Z,10.80
2022-11-15T21:19:12.547Z,10.71
2022-11-15T21:24:44.307Z,10.68
2022-11-15T21:30:16.256Z,10.59
2022-11-15T21:35:53.706Z,10.53
2022-11-15T21:46:54.738Z,10.43
2022-11-15T21:52:26.316Z,10.29
2022-11-15T21:57:58.030Z,10.23
2022-11-15T22:03:29.866Z,10.04
2022-11-15T22:14:31.046Z,9.87
2022-11-15T22:20:22.764Z,9.80
2022-11-15T22:25:34.589Z,9.70
2022-11-15T22:37:13.294Z,9.58
2022-11-15T22:42:18.249Z,9.57
2022-11-15T22:47:46.945Z,9.51
2022-11-15T22:53:18.781Z,9.39
2022-11-15T22:58:50.496Z,9.33
2022-11-15T23:04:22.405Z,9.25
2022-11-15T23:09:54.116Z,9.19
2022-11-15T23:15:29.568Z,9.18
2022-11-15T23:20:57.719Z,9.15
2022-11-15T23:26:29.321Z,9.08
2022-11-15T23:32:02.291Z,9.01
2022-11-15T23:37:32.525Z,8.94
2022-11-15T23:43:04.363Z,8.91
2022-11-15T23:48:36.195Z,8.84
2022-11-15T23:54:07.408Z,8.82
2022-11-15T23:59:39.082Z,8.78
